createdAt,value
2022-11-24T00:00:21.454Z,5.50
2022-11-24T00:02:48.905Z,5.07
2022-11-24T00:05:16.290Z,4.77
2022-11-24T00:07:43.692Z,5.17
2022-11-24T00:10:11.359Z,6.30
2022-11-24T00:12:38.700Z,5.77
2022-11-24T00:15:06.327Z,5.73
2022-11-24T00:17:35.071Z,5.37
2022-11-24T00:20:02.357Z,4.70
2022-11-24T00:22:29.663Z,4.60
2022-11-24T00:24:56.980Z,5.40
2022-11-24T00:27:24.345Z,5.53
2022-11-24T00:29:52.076Z,4.40
2022-11-24T00:32:19.346Z,4.13
2022-11-24T00:34:48.014Z,5.30
2022-11-24T00:37:28.060Z,4.90
2022-11-24T00:40:00.500Z,4.57
2022-11-24T00:42:27.839Z,4.00
2022-11-24T00:44:55.235Z,5.07
2022-11-24T00:47:22.573Z,4.70
2022-11-24T00:49:51.695Z,5.67
2022-11-24T00:52:19.025Z,4.43
2022-11-24T00:54:46.403Z,3.70
2022-11-24T00:57:13.703Z,3.97
2022-11-24T00:59:41.060Z,4.30
2022-11-24T01:02:08.849Z,3.77
2022-11-24T01:04:36.586Z,4.50
2022-11-24T01:07:19.259Z,4.00
2022-11-24T01:09:48.192Z,3.43
2022-11-24T01:12:15.533Z,4.00
2022-11-24T01:14:42.880Z,3.90
2022-11-24T01:17:10.153Z,4.47
2022-11-24T01:19:37.457Z,3.73
2022-11-24T01:22:05.464Z,4.93
2022-11-24T01:24:33.044Z,4.33
2022-11-24T01:27:02.034Z,4.30
2022-11-24T01:29:29.403Z,5.50
2022-11-24T01:31:56.701Z,4.23
2022-11-24T01:34:24.039Z,4.30
2022-11-24T01:37:12.853Z,3.53
2022-11-24T01:39:57.944Z,4.83
2022-11-24T01:42:26.727Z,4.80
2022-11-24T01:45:15.292Z,3.90
2022-11-24T01:47:42.585Z,4.33
2022-11-24T01:50:10.995Z,4.43
2022-11-24T01:52:39.269Z,5.20
2022-11-24T01:55:08.687Z,4.53
2022-11-24T01:57:39.445Z,4.13
2022-11-24T02:00:08.396Z,4.73
2022-11-24T02:02:45.298Z,5.20
2022-11-24T02:05:14.345Z,5.00
2022-11-24T02:07:41.731Z,4.40
2022-11-24T02:10:10.740Z,4.37
2022-11-24T02:12:40.203Z,4.30
2022-11-24T02:15:09.109Z,4.03
2022-11-24T02:17:36.438Z,3.43
2022-11-24T02:20:05.001Z,3.33
2022-11-24T02:22:41.379Z,3.87
2022-11-24T02:27:54.261Z,3.13
2022-11-24T02:30:21.758Z,3.17
2022-11-24T02:32:49.191Z,3.00
2022-11-24T02:35:16.583Z,2.80
2022-11-24T02:37:46.274Z,3.80
2022-11-24T02:40:19.714Z,3.00
2022-11-24T02:43:03.850Z,2.57
2022-11-24T02:45:32.354Z,2.80
2022-11-24T02:47:59.764Z,3.13
2022-11-24T02:50:27.519Z,2.00
2022-11-24T02:52:55.009Z,2.57
2022-11-24T02:55:22.714Z,2.37
2022-11-24T02:57:50.154Z,2.30
2022-11-24T03:00:19.902Z,3.00
2022-11-24T03:02:47.601Z,1.93
2022-11-24T03:05:15.049Z,1.90
2022-11-24T03:07:45.699Z,2.77
2022-11-24T03:10:13.195Z,3.57
2022-11-24T03:12:40.548Z,3.60
2022-11-24T03:15:13.373Z,2.50
2022-11-24T03:17:42.152Z,2.73
2022-11-24T03:20:10.370Z,3.40
2022-11-24T03:22:37.864Z,2.80
2022-11-24T03:25:11.319Z,3.50
2022-11-24T03:31:21.704Z,2.87
2022-11-24T03:33:50.443Z,2.50
2022-11-24T03:36:17.901Z,3.27
2022-11-24T03:38:45.368Z,3.93
2022-11-24T03:41:12.725Z,4.20
2022-11-24T03:43:43.655Z,3.40
2022-11-24T03:46:11.965Z,4.30
2022-11-24T03:48:39.386Z,3.67
2022-11-24T03:51:08.389Z,3.57
2022-11-24T03:53:35.864Z,2.70
2022-11-24T03:56:25.485Z,2.70
2022-11-24T03:58:52.806Z,2.40
2022-11-24T04:01:20.207Z,2.07
2022-11-24T04:03:47.536Z,1.90
2022-11-24T04:06:16.500Z,2.20
2022-11-24T04:08:43.780Z,1.87
2022-11-24T04:11:11.108Z,2.10
2022-11-24T04:13:38.420Z,2.13
2022-11-24T04:16:06.289Z,2.13
2022-11-24T04:18:33.548Z,2.10
2022-11-24T04:21:00.860Z,2.30
2022-11-24T04:23:29.460Z,2.80
2022-11-24T04:25:56.860Z,2.20
2022-11-24T04:28:24.475Z,1.90
2022-11-24T04:31:17.322Z,2.10
2022-11-24T04:33:44.780Z,2.10
2022-11-24T04:36:12.064Z,1.90
2022-11-24T04:39:23.250Z,1.80
2022-11-24T04:41:27.940Z,2.00
2022-11-24T04:43:56.187Z,1.70
2022-11-24T04:46:23.554Z,1.90
2022-11-24T04:48:50.900Z,1.80
2022-11-24T04:51:18.167Z,1.97
2022-11-24T04:56:34.693Z,1.60
2022-11-24T04:59:07.826Z,2.20
2022-11-24T05:01:35.818Z,2.17
2022-11-24T05:04:03.198Z,1.80
2022-11-24T05:06:30.676Z,1.90
2022-11-24T05:08:59.251Z,2.03
2022-11-24T05:11:26.538Z,1.60
2022-11-24T05:13:54.048Z,2.67
2022-11-24T05:16:21.355Z,2.03
2022-11-24T05:18:48.588Z,1.70
2022-11-24T05:21:15.847Z,1.50
2022-11-24T05:23:43.076Z,2.13
2022-11-24T05:26:11.684Z,2.33
2022-11-24T05:28:40.384Z,2.23
2022-11-24T05:31:07.710Z,2.10
2022-11-24T05:33:35.281Z,1.70
2022-11-24T05:36:03.303Z,2.70
2022-11-24T05:38:30.997Z,2.20
2022-11-24T05:41:00.726Z,2.07
2022-11-24T05:46:36.465Z,2.70
2022-11-24T05:49:04.120Z,1.80
2022-11-24T05:51:31.337Z,2.50
2022-11-24T05:54:07.617Z,2.93
2022-11-24T05:56:42.291Z,2.30
2022-11-24T05:59:11.229Z,2.40
2022-11-24T06:01:38.859Z,2.70
2022-11-24T06:04:06.204Z,2.60
2022-11-24T06:06:33.392Z,2.90
2022-11-24T06:09:00.564Z,2.30
2022-11-24T06:11:27.810Z,1.90
2022-11-24T06:13:55.146Z,2.40
2022-11-24T06:16:23.973Z,2.17
2022-11-24T06:18:51.244Z,2.53
2022-11-24T06:21:18.559Z,2.67
2022-11-24T06:23:47.944Z,2.10
2022-11-24T06:26:16.653Z,2.50
2022-11-24T06:28:52.874Z,2.43
2022-11-24T06:31:20.240Z,2.37
2022-11-24T06:33:48.824Z,2.37
2022-11-24T06:36:16.280Z,2.30
2022-11-24T06:38:43.558Z,2.47
2022-11-24T06:41:12.371Z,2.93
2022-11-24T06:46:34.567Z,2.37
2022-11-24T06:49:03.688Z,3.50
2022-11-24T06:51:30.856Z,2.67
2022-11-24T06:53:58.113Z,2.93
2022-11-24T06:56:25.655Z,3.57
2022-11-24T06:59:19.958Z,3.20
2022-11-24T07:01:51.468Z,2.70
2022-11-24T07:04:20.544Z,4.00
2022-11-24T07:06:47.808Z,3.13
2022-11-24T07:09:15.042Z,3.90
2022-11-24T07:11:42.377Z,2.70
2022-11-24T07:14:09.752Z,3.30
2022-11-24T07:16:37.050Z,2.50
2022-11-24T07:19:04.498Z,2.97
2022-11-24T07:21:33.131Z,3.03
2022-11-24T07:24:00.306Z,2.97
2022-11-24T07:26:27.902Z,3.80
2022-11-24T07:28:55.282Z,2.40
2022-11-24T07:31:23.305Z,2.43
2022-11-24T07:33:50.806Z,2.43
2022-11-24T07:36:18.342Z,2.63
2022-11-24T07:38:47.119Z,2.53
2022-11-24T07:41:18.438Z,3.03
2022-11-24T07:43:45.680Z,3.53
2022-11-24T07:46:14.581Z,2.93
2022-11-24T07:48:41.855Z,2.50
2022-11-24T07:51:09.161Z,2.57
2022-11-24T07:53:37.053Z,4.07
2022-11-24T07:56:06.107Z,3.73
2022-11-24T07:58:34.282Z,3.07
2022-11-24T08:01:01.498Z,3.83
2022-11-24T08:03:28.832Z,3.30
2022-11-24T08:08:46.385Z,3.30
2022-11-24T08:11:15.671Z,3.47
2022-11-24T08:13:43.219Z,2.60
2022-11-24T08:16:11.164Z,4.23
2022-11-24T08:18:38.809Z,3.30
2022-11-24T08:21:06.494Z,3.03
2022-11-24T08:23:33.841Z,3.23
2022-11-24T08:26:03.916Z,3.30
2022-11-24T08:28:33.531Z,3.67
2022-11-24T08:31:03.915Z,3.10
2022-11-24T08:36:19.346Z,3.20
2022-11-24T08:38:46.981Z,4.93
2022-11-24T08:41:15.112Z,3.20
2022-11-24T08:43:43.652Z,3.50
2022-11-24T08:46:13.572Z,3.57
2022-11-24T08:48:48.437Z,4.30
2022-11-24T08:51:37.128Z,3.87
2022-11-24T08:54:16.683Z,3.60
2022-11-24T08:56:43.905Z,4.13
2022-11-24T08:59:13.626Z,3.83
2022-11-24T09:01:41.152Z,3.63
2022-11-24T09:04:08.514Z,3.80
2022-11-24T09:06:35.801Z,3.97
2022-11-24T09:09:03.262Z,3.63
2022-11-24T09:11:30.742Z,4.80
2022-11-24T09:13:58.014Z,3.40
2022-11-24T09:16:27.840Z,2.87
2022-11-24T09:18:57.939Z,3.40
2022-11-24T09:21:25.165Z,3.67
2022-11-24T09:24:01.602Z,3.60
2022-11-24T09:26:36.017Z,3.73
2022-11-24T09:29:04.627Z,3.43
2022-11-24T09:31:34.776Z,3.77
2022-11-24T09:34:02.556Z,4.20
2022-11-24T09:36:29.788Z,5.00
2022-11-24T09:38:56.987Z,3.97
2022-11-24T09:41:38.860Z,4.10
2022-11-24T09:44:08.818Z,4.43
2022-11-24T09:46:43.220Z,4.13
2022-11-24T09:49:13.673Z,4.00
2022-11-24T09:51:42.157Z,3.60
2022-11-24T09:54:12.945Z,4.40
2022-11-24T09:56:42.582Z,4.30
2022-11-24T09:59:15.518Z,3.90
2022-11-24T10:01:46.549Z,5.40
2022-11-24T10:04:15.707Z,5.00
2022-11-24T10:06:47.591Z,4.13
2022-11-24T10:09:21.939Z,4.27
2022-11-24T10:11:53.887Z,5.00
2022-11-24T10:14:28.231Z,4.23
2022-11-24T10:17:02.473Z,3.90
2022-11-24T10:19:37.451Z,4.20
2022-11-24T10:22:21.351Z,4.70
2022-11-24T10:25:14.026Z,5.07
2022-11-24T10:27:44.241Z,5.13
2022-11-24T10:30:13.873Z,4.57
2022-11-24T10:32:45.785Z,3.90
2022-11-24T10:35:14.966Z,4.37
2022-11-24T10:37:46.536Z,5.20
2022-11-24T10:40:55.839Z,6.20
2022-11-24T10:43:05.651Z,5.27
2022-11-24T10:45:32.990Z,5.10
2022-11-24T10:48:01.772Z,4.67
2022-11-24T10:50:31.972Z,5.40
2022-11-24T10:53:26.665Z,6.03
2022-11-24T10:56:08.896Z,5.30
2022-11-24T10:58:38.472Z,5.60
2022-11-24T11:01:20.669Z,4.73
2022-11-24T11:03:50.057Z,6.37
2022-11-24T11:06:22.119Z,5.50
2022-11-24T11:08:49.470Z,4.17
2022-11-24T11:14:12.658Z,5.63
2022-11-24T11:16:40.854Z,6.07
2022-11-24T11:22:20.679Z,4.30
2022-11-24T11:24:48.510Z,4.93
2022-11-24T11:27:20.357Z,5.03
2022-11-24T11:35:41.662Z,4.90
2022-11-24T11:38:08.942Z,5.00
2022-11-24T11:40:37.286Z,5.60
2022-11-24T11:43:06.780Z,5.50
2022-11-24T11:45:35.693Z,4.17
2022-11-24T11:48:09.516Z,5.20
2022-11-24T11:51:06.656Z,5.03
2022-11-24T11:53:34.777Z,4.97
2022-11-24T11:56:12.959Z,4.40
2022-11-24T11:58:55.138Z,4.47
2022-11-24T12:01:53.570Z,4.60
2022-11-24T12:08:21.354Z,5.30
2022-11-24T12:10:54.186Z,4.87
2022-11-24T12:13:35.163Z,5.47
2022-11-24T12:16:08.292Z,4.77
2022-11-24T12:18:57.000Z,4.23
2022-11-24T12:21:30.441Z,4.33
2022-11-24T12:24:02.755Z,5.43
2022-11-24T12:26:35.704Z,3.67
2022-11-24T12:29:09.252Z,4.30
2022-11-24T12:31:41.515Z,5.97
2022-11-24T12:34:17.345Z,4.67
2022-11-24T12:36:55.267Z,4.87
2022-11-24T12:39:26.230Z,3.57
2022-11-24T12:42:02.304Z,4.20
2022-11-24T12:44:36.126Z,4.90
2022-11-24T12:47:08.214Z,4.40
2022-11-24T12:49:39.404Z,3.73
2022-11-24T12:52:21.699Z,3.53
2022-11-24T12:54:48.880Z,5.30
2022-11-24T12:57:19.620Z,3.23
2022-11-24T12:59:50.292Z,4.67
2022-11-24T13:02:26.012Z,3.97
2022-11-24T13:04:55.909Z,4.40
2022-11-24T13:07:27.662Z,4.73
2022-11-24T13:10:13.868Z,3.17
2022-11-24T13:12:59.311Z,3.60
2022-11-24T13:15:45.160Z,4.13
2022-11-24T13:18:43.173Z,3.80
2022-11-24T13:21:25.689Z,3.63
2022-11-24T13:23:56.895Z,5.50
2022-11-24T13:26:29.622Z,4.57
2022-11-24T13:29:09.290Z,4.20
2022-11-24T13:31:40.648Z,5.00
2022-11-24T13:34:22.871Z,5.40
2022-11-24T13:36:53.614Z,5.10
2022-11-24T13:39:21.526Z,4.20
2022-11-24T13:42:09.761Z,4.17
2022-11-24T13:48:41.972Z,5.33
2022-11-24T13:51:15.217Z,4.27
2022-11-24T13:53:44.020Z,4.33
2022-11-24T13:56:21.138Z,4.60
2022-11-24T13:58:49.352Z,4.90
2022-11-24T14:01:20.047Z,4.43
2022-11-24T14:04:21.555Z,4.10
2022-11-24T14:06:38.694Z,4.13
2022-11-24T14:09:21.453Z,4.20
2022-11-24T14:11:56.682Z,3.27
2022-11-24T14:14:24.669Z,4.10
2022-11-24T14:17:07.151Z,5.43
2022-11-24T14:19:41.711Z,4.20
2022-11-24T14:22:24.925Z,3.53
2022-11-24T14:25:00.716Z,4.60
2022-11-24T14:27:32.072Z,3.77
2022-11-24T14:30:00.245Z,3.50
2022-11-24T14:32:27.497Z,3.60
2022-11-24T14:34:56.081Z,4.73
2022-11-24T14:37:23.399Z,4.93
2022-11-24T14:39:50.752Z,3.77
2022-11-24T14:42:19.668Z,3.20
2022-11-24T14:44:48.872Z,3.83
2022-11-24T14:47:19.742Z,4.63
2022-11-24T14:50:05.874Z,3.87
2022-11-24T14:52:55.762Z,3.10
2022-11-24T14:55:27.872Z,2.73
2022-11-24T14:57:55.166Z,3.97
2022-11-24T15:00:26.714Z,4.70
2022-11-24T15:02:54.816Z,4.63
2022-11-24T15:05:23.274Z,3.30
2022-11-24T15:07:52.263Z,3.83
2022-11-24T15:10:30.640Z,4.13
2022-11-24T15:13:03.994Z,4.20
2022-11-24T15:15:32.084Z,3.90
2022-11-24T15:17:59.943Z,4.50
2022-11-24T15:20:28.996Z,3.50
2022-11-24T15:23:18.490Z,2.93
2022-11-24T15:25:46.230Z,2.90
2022-11-24T15:28:23.306Z,3.80
2022-11-24T15:30:50.815Z,3.00
2022-11-24T15:33:19.929Z,3.07
2022-11-24T15:35:47.478Z,3.80
2022-11-24T15:38:14.778Z,4.73
2022-11-24T15:40:43.285Z,4.07
2022-11-24T15:46:14.179Z,4.23
2022-11-24T15:48:41.485Z,4.40
2022-11-24T15:51:12.035Z,5.83
2022-11-24T15:53:40.261Z,3.93
2022-11-24T15:56:09.243Z,5.47
2022-11-24T15:58:42.143Z,3.23
2022-11-24T16:01:31.302Z,4.70
2022-11-24T16:04:00.376Z,4.53
2022-11-24T16:06:27.616Z,4.67
2022-11-24T16:08:55.162Z,4.10
2022-11-24T16:11:22.879Z,4.63
2022-11-24T16:13:53.406Z,4.47
2022-11-24T16:16:21.841Z,4.47
2022-11-24T16:18:49.173Z,4.77
2022-11-24T16:21:17.875Z,4.33
2022-11-24T16:23:45.072Z,4.90
2022-11-24T16:26:12.295Z,4.87
2022-11-24T16:28:39.532Z,4.53
2022-11-24T16:31:06.802Z,4.37
2022-11-24T16:33:34.070Z,3.80
2022-11-24T16:36:01.280Z,4.93
2022-11-24T16:38:29.858Z,5.23
2022-11-24T16:40:57.089Z,4.03
2022-11-24T16:43:24.371Z,3.43
2022-11-24T16:45:59.201Z,3.97
2022-11-24T16:48:26.531Z,5.13
2022-11-24T16:50:53.696Z,4.87
2022-11-24T16:53:20.936Z,4.60
2022-11-24T16:55:58.145Z,4.10
2022-11-24T16:58:25.398Z,5.00
2022-11-24T17:00:52.708Z,5.30
2022-11-24T17:03:19.920Z,3.87
2022-11-24T17:05:56.939Z,2.87
2022-11-24T17:08:24.194Z,4.60
2022-11-24T17:10:51.415Z,5.00
2022-11-24T17:13:20.012Z,4.20
2022-11-24T17:15:52.570Z,3.90
2022-11-24T17:18:25.413Z,4.13
2022-11-24T17:20:52.993Z,4.90
2022-11-24T17:23:20.233Z,4.37
2022-11-24T17:25:47.486Z,4.20
2022-11-24T17:28:14.773Z,4.30
2022-11-24T17:30:43.392Z,3.47
2022-11-24T17:33:10.641Z,4.83
2022-11-24T17:35:38.121Z,4.93
2022-11-24T17:38:05.462Z,4.27
2022-11-24T17:40:32.699Z,4.90
2022-11-24T17:42:59.918Z,3.87
2022-11-24T17:45:27.590Z,4.93
2022-11-24T17:47:56.260Z,3.13
2022-11-24T17:50:26.100Z,4.03
2022-11-24T17:52:53.932Z,4.37
2022-11-24T17:55:21.174Z,4.43
2022-11-24T17:57:48.390Z,3.80
2022-11-24T18:00:16.083Z,4.20
2022-11-24T18:02:43.358Z,4.33
2022-11-24T18:05:11.984Z,3.20
2022-11-24T18:07:39.261Z,3.57
2022-11-24T18:10:07.008Z,4.60
2022-11-24T18:12:34.394Z,4.07
2022-11-24T18:15:01.658Z,4.20
2022-11-24T18:17:28.913Z,3.47
2022-11-24T18:19:56.143Z,4.40
2022-11-24T18:22:50.134Z,4.20
2022-11-24T18:25:11.912Z,4.83
2022-11-24T18:27:39.114Z,5.10
2022-11-24T18:30:06.920Z,4.83
2022-11-24T18:32:34.117Z,3.90
2022-11-24T18:35:01.349Z,3.90
2022-11-24T18:37:31.246Z,3.97
2022-11-24T18:39:58.456Z,3.80
2022-11-24T18:42:25.734Z,3.80
2022-11-24T18:44:54.339Z,4.90
2022-11-24T18:47:21.694Z,3.57
2022-11-24T18:49:48.966Z,4.07
2022-11-24T18:52:16.230Z,3.40
2022-11-24T18:54:44.864Z,4.27
2022-11-24T18:57:12.066Z,5.40
2022-11-24T18:59:39.296Z,4.50
2022-11-24T19:02:06.712Z,5.57
2022-11-24T19:04:34.115Z,3.87
2022-11-24T19:07:01.646Z,3.47
2022-11-24T19:09:28.881Z,3.47
2022-11-24T19:11:57.467Z,3.70
2022-11-24T19:14:24.652Z,4.63
2022-11-24T19:16:51.945Z,4.50
2022-11-24T19:19:19.219Z,4.53
2022-11-24T19:21:46.580Z,5.17
2022-11-24T19:24:13.825Z,3.90
2022-11-24T19:26:41.106Z,4.23
2022-11-24T19:29:09.670Z,4.20
2022-11-24T19:31:37.493Z,4.93
2022-11-24T19:34:04.770Z,3.50
2022-11-24T19:36:32.346Z,3.57
2022-11-24T19:38:59.567Z,4.00
2022-11-24T19:41:27.893Z,5.53
2022-11-24T19:43:55.291Z,4.13
2022-11-24T19:46:24.460Z,4.73
2022-11-24T19:48:51.787Z,4.67
2022-11-24T19:51:19.805Z,3.53
2022-11-24T19:53:47.401Z,3.60
2022-11-24T19:56:17.224Z,3.63
2022-11-24T19:58:44.434Z,4.77
2022-11-24T20:01:12.784Z,3.43
2022-11-24T20:03:41.786Z,5.07
2022-11-24T20:06:10.107Z,4.23
2022-11-24T20:08:38.462Z,3.23
2022-11-24T20:11:06.648Z,5.53
2022-11-24T20:13:34.506Z,4.57
2022-11-24T20:16:04.989Z,3.97
2022-11-24T20:18:35.233Z,5.77
2022-11-24T20:21:07.341Z,5.57
2022-11-24T20:23:34.597Z,3.60
2022-11-24T20:26:05.358Z,6.10
2022-11-24T20:28:32.674Z,3.80
2022-11-24T20:31:03.100Z,3.47
2022-11-24T20:33:31.254Z,5.20
2022-11-24T20:36:02.152Z,5.27
2022-11-24T20:38:31.184Z,3.73
2022-11-24T20:41:06.017Z,5.80
2022-11-24T20:43:36.532Z,3.17
2022-11-24T20:46:04.046Z,3.50
2022-11-24T20:48:31.360Z,4.90
2022-11-24T20:51:02.983Z,4.97
2022-11-24T20:53:31.575Z,4.73
2022-11-24T20:56:05.891Z,4.17
2022-11-24T20:58:33.909Z,5.63
2022-11-24T21:01:03.773Z,4.70
2022-11-24T21:03:31.124Z,4.40
2022-11-24T21:05:58.367Z,5.73
2022-11-24T21:08:25.623Z,3.80
2022-11-24T21:10:54.700Z,4.30
2022-11-24T21:13:21.955Z,5.53
2022-11-24T21:15:49.192Z,5.70
2022-11-24T21:18:16.431Z,5.93
2022-11-24T21:20:43.708Z,4.60
2022-11-24T21:23:10.953Z,4.20
2022-11-24T21:25:38.221Z,3.93
2022-11-24T21:28:06.906Z,4.60
2022-11-24T21:30:34.125Z,5.40
2022-11-24T21:33:02.085Z,4.37
2022-11-24T21:35:29.274Z,4.83
2022-11-24T21:37:56.496Z,6.33
2022-11-24T21:40:23.776Z,4.57
2022-11-24T21:42:50.973Z,4.67
2022-11-24T21:45:19.629Z,4.80
2022-11-24T21:47:46.845Z,4.53
2022-11-24T21:50:14.120Z,4.17
2022-11-24T21:52:41.312Z,4.90
2022-11-24T21:55:09.000Z,5.00
2022-11-24T21:57:36.200Z,4.40
2022-11-24T22:00:03.536Z,4.67
2022-11-24T22:02:35.082Z,5.57
2022-11-24T22:05:02.348Z,5.20
2022-11-24T22:07:31.308Z,3.83
2022-11-24T22:09:58.556Z,5.10
2022-11-24T22:12:25.833Z,4.37
2022-11-24T22:14:53.028Z,5.17
2022-11-24T22:17:20.220Z,3.77
2022-11-24T22:19:48.751Z,3.60
2022-11-24T22:22:15.985Z,4.43
2022-11-24T22:24:43.214Z,4.33
2022-11-24T22:27:10.424Z,3.80
2022-11-24T22:29:37.620Z,3.70
2022-11-24T22:32:05.266Z,4.70
2022-11-24T22:34:32.696Z,5.17
2022-11-24T22:37:01.435Z,4.00
2022-11-24T22:39:28.625Z,2.90
2022-11-24T22:41:55.821Z,4.73
2022-11-24T22:44:23.004Z,5.40
2022-11-24T22:46:50.212Z,3.90
2022-11-24T22:49:17.441Z,3.90
2022-11-24T22:51:44.660Z,3.83
2022-11-24T22:54:13.483Z,3.60
2022-11-24T22:56:40.767Z,4.63
2022-11-24T22:59:07.982Z,4.33
2022-11-24T23:01:35.570Z,4.90
2022-11-24T23:04:02.917Z,4.43
2022-11-24T23:06:31.750Z,5.30
2022-11-24T23:08:59.639Z,4.00
2022-11-24T23:11:35.089Z,4.37
2022-11-24T23:14:03.926Z,5.03
2022-11-24T23:16:31.299Z,5.20
2022-11-24T23:18:58.723Z,5.50
2022-11-24T23:21:27.146Z,4.67
2022-11-24T23:23:54.597Z,3.90
2022-11-24T23:26:25.564Z,4.07
2022-11-24T23:28:54.176Z,4.50
2022-11-24T23:31:22.403Z,4.47
2022-11-24T23:33:49.738Z,3.97
2022-11-24T23:36:17.571Z,4.03
2022-11-24T23:38:45.176Z,4.80
2022-11-24T23:41:13.206Z,4.83
2022-11-24T23:43:41.256Z,6.07
2022-11-24T23:46:10.563Z,4.03
2022-11-24T23:48:38.369Z,4.23
2022-11-24T23:51:06.358Z,5.03
2022-11-24T23:53:33.813Z,3.50
2022-11-24T23:56:01.078Z,4.47
2022-11-24T23:58:28.313Z,3.83
